sensor_id;sensor_type;location;lat;lon;timestamp;pressure;altitude;pressure_sealevel;temperature;humidity
52651;BME280;38537;47.226;39.702;2022-10-22T00:00:42;101669.06;;;8.14;53.39
52651;BME280;38537;47.226;39.702;2022-10-22T00:03:09;101674.13;;;8.17;53.32
52651;BME280;38537;47.226;39.702;2022-10-22T00:05:37;101689.47;;;8.20;52.83
52651;BME280;38537;47.226;39.702;2022-10-22T00:08:05;101673.91;;;8.02;52.46
52651;BME280;38537;47.226;39.702;2022-10-22T00:10:32;101687.31;;;8.05;52.80
52651;BME280;38537;47.226;39.702;2022-10-22T00:12:59;101703.31;;;8.15;53.08
52651;BME280;38537;47.226;39.702;2022-10-22T00:15:27;101693.72;;;8.06;53.28
52651;BME280;38537;47.226;39.702;2022-10-22T00:17:54;101698.78;;;8.09;53.30
52651;BME280;38537;47.226;39.702;2022-10-22T00:20:21;101697.66;;;8.10;52.73
52651;BME280;38537;47.226;39.702;2022-10-22T00:22:49;101696.91;;;8.14;52.99
52651;BME280;38537;47.226;39.702;2022-10-22T00:25:16;101695.81;;;8.15;52.99
52651;BME280;38537;47.226;39.702;2022-10-22T00:27:43;101683.84;;;8.15;53.24
52651;BME280;38537;47.226;39.702;2022-10-22T00:30:11;101680.22;;;8.14;52.96
52651;BME280;38537;47.226;39.702;2022-10-22T00:32:38;101687.44;;;8.15;52.93
52651;BME280;38537;47.226;39.702;2022-10-22T00:35:06;101666.66;;;8.01;53.22
52651;BME280;38537;47.226;39.702;2022-10-22T00:37:34;101689.50;;;8.25;52.52
52651;BME280;38537;47.226;39.702;2022-10-22T00:40:02;101696.66;;;8.38;52.34
52651;BME280;38537;47.226;39.702;2022-10-22T00:42:30;101701.06;;;8.34;52.34
52651;BME280;38537;47.226;39.702;2022-10-22T00:47:41;101700.09;;;8.28;51.58
52651;BME280;38537;47.226;39.702;2022-10-22T00:50:14;101708.72;;;8.26;52.08
52651;BME280;38537;47.226;39.702;2022-10-22T00:52:43;101701.47;;;8.25;52.64
52651;BME280;38537;47.226;39.702;2022-10-22T00:55:11;101706.53;;;8.29;52.30
52651;BME280;38537;47.226;39.702;2022-10-22T00:57:39;101711.56;;;8.32;52.00
52651;BME280;38537;47.226;39.702;2022-10-22T01:00:07;101702.63;;;8.30;51.97
52651;BME280;38537;47.226;39.702;2022-10-22T01:02:35;101706.63;;;8.34;52.43
52651;BME280;38537;47.226;39.702;2022-10-22T01:05:02;101703.16;;;8.26;52.57
52651;BME280;38537;47.226;39.702;2022-10-22T01:07:38;101706.19;;;8.25;52.17
52651;BME280;38537;47.226;39.702;2022-10-22T01:13:09;101702.56;;;8.24;52.15
52651;BME280;38537;47.226;39.702;2022-10-22T01:18:58;101697.41;;;8.11;52.58
52651;BME280;38537;47.226;39.702;2022-10-22T01:21:35;101694.56;;;8.06;52.71
52651;BME280;38537;47.226;39.702;2022-10-22T01:32:38;101699.59;;;8.09;52.51
52651;BME280;38537;47.226;39.702;2022-10-22T01:35:10;101698.84;;;8.14;52.50
52651;BME280;38537;47.226;39.702;2022-10-22T01:37:47;101703.66;;;8.23;52.45
52651;BME280;38537;47.226;39.702;2022-10-22T01:40:15;101703.13;;;8.21;52.43
52651;BME280;38537;47.226;39.702;2022-10-22T01:43:03;101713.69;;;8.24;51.65
52651;BME280;38537;47.226;39.702;2022-10-22T01:45:34;101717.53;;;8.18;52.21
52651;BME280;38537;47.226;39.702;2022-10-22T01:48:27;101721.28;;;8.07;52.08
52651;BME280;38537;47.226;39.702;2022-10-22T02:02:24;101732.56;;;8.17;51.88
52651;BME280;38537;47.226;39.702;2022-10-22T02:05:04;101733.00;;;8.09;52.24
52651;BME280;38537;47.226;39.702;2022-10-22T02:07:39;101722.63;;;8.05;52.26
52651;BME280;38537;47.226;39.702;2022-10-22T02:10:09;101728.66;;;7.97;52.45
52651;BME280;38537;47.226;39.702;2022-10-22T02:12:39;101736.63;;;8.10;52.45
52651;BME280;38537;47.226;39.702;2022-10-22T02:15:31;101737.91;;;8.02;52.64
52651;BME280;38537;47.226;39.702;2022-10-22T02:17:59;101726.41;;;7.94;52.64
52651;BME280;38537;47.226;39.702;2022-10-22T02:20:33;101739.19;;;7.95;52.69
52651;BME280;38537;47.226;39.702;2022-10-22T02:23:02;101747.22;;;7.91;52.92
52651;BME280;38537;47.226;39.702;2022-10-22T02:25:34;101746.13;;;7.92;52.40
52651;BME280;38537;47.226;39.702;2022-10-22T02:30:56;101740.50;;;8.09;52.51
52651;BME280;38537;47.226;39.702;2022-10-22T02:33:30;101738.81;;;8.08;52.50
52651;BME280;38537;47.226;39.702;2022-10-22T02:36:01;101745.59;;;7.95;52.78
52651;BME280;38537;47.226;39.702;2022-10-22T02:38:29;101737.34;;;8.00;53.09
52651;BME280;38537;47.226;39.702;2022-10-22T02:40:58;101729.53;;;8.02;52.65
52651;BME280;38537;47.226;39.702;2022-10-22T02:43:27;101744.94;;;7.88;53.04
52651;BME280;38537;47.226;39.702;2022-10-22T02:45:56;101735.41;;;7.84;52.86
52651;BME280;38537;47.226;39.702;2022-10-22T02:48:23;101734.78;;;7.77;52.89
52651;BME280;38537;47.226;39.702;2022-10-22T02:50:50;101738.06;;;7.74;52.97
52651;BME280;38537;47.226;39.702;2022-10-22T02:53:18;101723.94;;;7.58;52.97
52651;BME280;38537;47.226;39.702;2022-10-22T02:55:46;101742.47;;;7.70;53.27
52651;BME280;38537;47.226;39.702;2022-10-22T02:58:13;101754.94;;;7.67;52.85
52651;BME280;38537;47.226;39.702;2022-10-22T03:00:41;101752.06;;;7.62;53.24
52651;BME280;38537;47.226;39.702;2022-10-22T03:03:08;101745.00;;;7.54;53.05
52651;BME280;38537;47.226;39.702;2022-10-22T03:05:35;101736.00;;;7.47;53.49
52651;BME280;38537;47.226;39.702;2022-10-22T03:08:03;101759.13;;;7.70;53.36
52651;BME280;38537;47.226;39.702;2022-10-22T03:10:30;101755.84;;;7.73;53.58
52651;BME280;38537;47.226;39.702;2022-10-22T03:12:58;101752.66;;;7.64;53.37
52651;BME280;38537;47.226;39.702;2022-10-22T03:15:25;101759.13;;;7.70;53.46
52651;BME280;38537;47.226;39.702;2022-10-22T03:17:53;101745.06;;;7.60;53.34
52651;BME280;38537;47.226;39.702;2022-10-22T03:20:22;101732.22;;;7.53;52.95
52651;BME280;38537;47.226;39.702;2022-10-22T03:22:49;101741.44;;;7.59;53.19
52651;BME280;38537;47.226;39.702;2022-10-22T03:25:20;101758.13;;;7.59;53.68
52651;BME280;38537;47.226;39.702;2022-10-22T03:27:50;101746.38;;;7.52;53.42
52651;BME280;38537;47.226;39.702;2022-10-22T03:30:18;101742.50;;;7.53;53.64
52651;BME280;38537;47.226;39.702;2022-10-22T03:32:48;101754.66;;;7.69;53.27
52651;BME280;38537;47.226;39.702;2022-10-22T03:35:15;101759.97;;;7.70;53.47
52651;BME280;38537;47.226;39.702;2022-10-22T03:37:43;101748.84;;;7.70;53.40
52651;BME280;38537;47.226;39.702;2022-10-22T03:40:11;101751.91;;;7.69;53.67
52651;BME280;38537;47.226;39.702;2022-10-22T03:42:39;101746.34;;;7.69;53.36
52651;BME280;38537;47.226;39.702;2022-10-22T03:45:08;101757.34;;;7.80;52.92
52651;BME280;38537;47.226;39.702;2022-10-22T03:47:36;101749.19;;;7.74;52.68
52651;BME280;38537;47.226;39.702;2022-10-22T03:50:04;101767.44;;;7.86;52.58
52651;BME280;38537;47.226;39.702;2022-10-22T03:52:39;101764.03;;;8.01;52.49
52651;BME280;38537;47.226;39.702;2022-10-22T03:55:07;101774.84;;;7.98;52.57
52651;BME280;38537;47.226;39.702;2022-10-22T03:57:35;101779.31;;;7.99;52.23
52651;BME280;38537;47.226;39.702;2022-10-22T04:00:05;101770.25;;;8.08;52.68
52651;BME280;38537;47.226;39.702;2022-10-22T04:02:32;101775.91;;;8.13;53.03
52651;BME280;38537;47.226;39.702;2022-10-22T04:05:00;101754.41;;;8.09;52.64
52651;BME280;38537;47.226;39.702;2022-10-22T04:07:29;101759.06;;;8.25;52.49
52651;BME280;38537;47.226;39.702;2022-10-22T04:09:57;101775.00;;;8.30;52.02
52651;BME280;38537;47.226;39.702;2022-10-22T04:12:24;101775.81;;;8.30;52.12
52651;BME280;38537;47.226;39.702;2022-10-22T04:14:52;101768.78;;;8.22;51.56
52651;BME280;38537;47.226;39.702;2022-10-22T04:17:19;101754.03;;;8.22;51.94
52651;BME280;38537;47.226;39.702;2022-10-22T04:19:46;101761.00;;;8.24;51.64
52651;BME280;38537;47.226;39.702;2022-10-22T04:22:15;101766.31;;;8.26;51.72
52651;BME280;38537;47.226;39.702;2022-10-22T04:24:45;101761.53;;;8.21;51.64
52651;BME280;38537;47.226;39.702;2022-10-22T04:27:13;101769.94;;;8.26;51.81
52651;BME280;38537;47.226;39.702;2022-10-22T04:29:40;101771.03;;;8.42;51.99
52651;BME280;38537;47.226;39.702;2022-10-22T04:32:10;101763.56;;;8.48;51.80
52651;BME280;38537;47.226;39.702;2022-10-22T04:34:37;101786.22;;;8.56;51.64
52651;BME280;38537;47.226;39.702;2022-10-22T04:37:06;101772.56;;;8.55;51.36
52651;BME280;38537;47.226;39.702;2022-10-22T04:39:35;101783.88;;;8.48;51.28
52651;BME280;38537;47.226;39.702;2022-10-22T04:42:02;101784.03;;;8.37;51.13
52651;BME280;38537;47.226;39.702;2022-10-22T04:44:30;101790.19;;;8.39;51.08
52651;BME280;38537;47.226;39.702;2022-10-22T04:46:57;101789.00;;;8.35;51.29
52651;BME280;38537;47.226;39.702;2022-10-22T04:49:25;101783.84;;;8.26;51.49
52651;BME280;38537;47.226;39.702;2022-10-22T04:51:52;101799.44;;;8.27;51.55
52651;BME280;38537;47.226;39.702;2022-10-22T04:54:20;101787.44;;;8.22;51.51
52651;BME280;38537;47.226;39.702;2022-10-22T04:56:47;101796.28;;;8.19;51.39
52651;BME280;38537;47.226;39.702;2022-10-22T04:59:14;101811.03;;;8.19;51.61
52651;BME280;38537;47.226;39.702;2022-10-22T05:01:44;101800.84;;;8.08;52.03
52651;BME280;38537;47.226;39.702;2022-10-22T05:04:14;101806.00;;;8.16;52.11
52651;BME280;38537;47.226;39.702;2022-10-22T05:06:42;101809.28;;;8.13;52.31
52651;BME280;38537;47.226;39.702;2022-10-22T05:09:18;101817.69;;;8.18;52.13
52651;BME280;38537;47.226;39.702;2022-10-22T05:11:50;101812.47;;;8.22;51.77
52651;BME280;38537;47.226;39.702;2022-10-22T05:14:22;101818.34;;;8.25;51.69
52651;BME280;38537;47.226;39.702;2022-10-22T05:16:50;101811.41;;;8.28;52.40
52651;BME280;38537;47.226;39.702;2022-10-22T05:19:21;101808.50;;;8.18;52.13
52651;BME280;38537;47.226;39.702;2022-10-22T05:21:51;101814.78;;;8.30;52.30
52651;BME280;38537;47.226;39.702;2022-10-22T05:24:20;101820.22;;;8.37;52.49
52651;BME280;38537;47.226;39.702;2022-10-22T05:26:48;101818.53;;;8.36;52.26
52651;BME280;38537;47.226;39.702;2022-10-22T05:29:16;101825.97;;;8.52;52.62
52651;BME280;38537;47.226;39.702;2022-10-22T05:31:44;101816.50;;;8.53;52.92
52651;BME280;38537;47.226;39.702;2022-10-22T05:34:12;101821.81;;;8.54;52.58
52651;BME280;38537;47.226;39.702;2022-10-22T05:36:41;101817.44;;;8.58;52.35
52651;BME280;38537;47.226;39.702;2022-10-22T05:39:08;101815.56;;;8.64;52.72
52651;BME280;38537;47.226;39.702;2022-10-22T05:41:36;101825.97;;;8.74;52.75
52651;BME280;38537;47.226;39.702;2022-10-22T05:44:04;101826.41;;;8.87;52.75
52651;BME280;38537;47.226;39.702;2022-10-22T05:46:35;101826.13;;;8.89;52.04
52651;BME280;38537;47.226;39.702;2022-10-22T05:49:05;101843.88;;;9.05;51.49
52651;BME280;38537;47.226;39.702;2022-10-22T05:51:35;101846.81;;;9.20;51.62
52651;BME280;38537;47.226;39.702;2022-10-22T05:54:05;101845.78;;;9.26;51.23
52651;BME280;38537;47.226;39.702;2022-10-22T05:56:34;101841.28;;;9.52;51.50
52651;BME280;38537;47.226;39.702;2022-10-22T05:59:01;101832.16;;;9.61;51.39
52651;BME280;38537;47.226;39.702;2022-10-22T06:01:33;101839.47;;;9.68;51.20
52651;BME280;38537;47.226;39.702;2022-10-22T06:04:05;101838.88;;;10.03;51.81
52651;BME280;38537;47.226;39.702;2022-10-22T06:06:36;101842.59;;;10.13;50.83
52651;BME280;38537;47.226;39.702;2022-10-22T06:09:20;101847.78;;;10.37;51.75
52651;BME280;38537;47.226;39.702;2022-10-22T06:11:48;101841.06;;;10.33;51.17
52651;BME280;38537;47.226;39.702;2022-10-22T06:14:18;101847.31;;;10.55;51.54
52651;BME280;38537;47.226;39.702;2022-10-22T06:16:46;101843.41;;;10.56;49.99
52651;BME280;38537;47.226;39.702;2022-10-22T06:19:15;101847.28;;;10.50;49.09
52651;BME280;38537;47.226;39.702;2022-10-22T06:21:44;101840.31;;;10.52;49.83
52651;BME280;38537;47.226;39.702;2022-10-22T06:24:12;101842.25;;;10.47;49.58
52651;BME280;38537;47.226;39.702;2022-10-22T06:26:39;101850.16;;;10.60;50.69
52651;BME280;38537;47.226;39.702;2022-10-22T06:29:07;101841.75;;;10.55;49.90
52651;BME280;38537;47.226;39.702;2022-10-22T06:31:35;101859.38;;;10.65;51.14
52651;BME280;38537;47.226;39.702;2022-10-22T06:34:05;101848.53;;;10.74;51.05
52651;BME280;38537;47.226;39.702;2022-10-22T06:36:32;101834.59;;;10.79;50.26
52651;BME280;38537;47.226;39.702;2022-10-22T06:39:01;101846.03;;;10.78;50.08
52651;BME280;38537;47.226;39.702;2022-10-22T06:41:28;101836.44;;;10.58;49.67
52651;BME280;38537;47.226;39.702;2022-10-22T06:43:56;101826.06;;;10.49;49.69
52651;BME280;38537;47.226;39.702;2022-10-22T06:46:24;101843.41;;;10.61;49.83
52651;BME280;38537;47.226;39.702;2022-10-22T06:48:59;101841.81;;;10.75;50.04
52651;BME280;38537;47.226;39.702;2022-10-22T06:51:30;101823.41;;;10.79;50.51
52651;BME280;38537;47.226;39.702;2022-10-22T06:53:58;101833.44;;;10.75;49.94
52651;BME280;38537;47.226;39.702;2022-10-22T06:56:27;101827.88;;;10.80;50.24
52651;BME280;38537;47.226;39.702;2022-10-22T06:58:56;101826.25;;;10.94;49.91
52651;BME280;38537;47.226;39.702;2022-10-22T07:01:30;101827.41;;;11.04;49.43
52651;BME280;38537;47.226;39.702;2022-10-22T07:03:59;101812.84;;;11.12;49.77
52651;BME280;38537;47.226;39.702;2022-10-22T07:06:27;101815.13;;;11.30;50.50
52651;BME280;38537;47.226;39.702;2022-10-22T07:08:57;101808.13;;;11.32;50.09
52651;BME280;38537;47.226;39.702;2022-10-22T07:11:27;101819.03;;;11.49;50.05
52651;BME280;38537;47.226;39.702;2022-10-22T07:13:57;101802.00;;;11.51;50.11
52651;BME280;38537;47.226;39.702;2022-10-22T07:16:27;101820.47;;;11.47;48.31
52651;BME280;38537;47.226;39.702;2022-10-22T07:19:39;101813.72;;;11.48;48.17
52651;BME280;38537;47.226;39.702;2022-10-22T07:22:07;101812.63;;;11.59;49.99
52651;BME280;38537;47.226;39.702;2022-10-22T07:24:34;101803.38;;;11.48;48.80
52651;BME280;38537;47.226;39.702;2022-10-22T07:27:01;101797.25;;;11.56;48.63
52651;BME280;38537;47.226;39.702;2022-10-22T07:29:31;101818.25;;;11.69;48.89
52651;BME280;38537;47.226;39.702;2022-10-22T07:31:59;101815.41;;;11.54;47.62
52651;BME280;38537;47.226;39.702;2022-10-22T07:34:26;101802.00;;;11.61;49.31
52651;BME280;38537;47.226;39.702;2022-10-22T07:36:53;101801.16;;;11.65;48.34
52651;BME280;38537;47.226;39.702;2022-10-22T07:39:22;101812.63;;;11.99;48.99
52651;BME280;38537;47.226;39.702;2022-10-22T07:41:51;101805.06;;;12.05;48.10
52651;BME280;38537;47.226;39.702;2022-10-22T07:44:19;101801.94;;;12.17;48.30
52651;BME280;38537;47.226;39.702;2022-10-22T07:46:46;101803.00;;;12.41;48.18
52651;BME280;38537;47.226;39.702;2022-10-22T07:49:15;101804.09;;;12.50;48.36
52651;BME280;38537;47.226;39.702;2022-10-22T07:51:42;101794.22;;;12.63;48.29
52651;BME280;38537;47.226;39.702;2022-10-22T07:54:09;101805.69;;;12.66;48.49
52651;BME280;38537;47.226;39.702;2022-10-22T07:56:37;101816.09;;;12.56;47.35
52651;BME280;38537;47.226;39.702;2022-10-22T07:59:04;101804.41;;;12.44;47.14
52651;BME280;38537;47.226;39.702;2022-10-22T08:01:31;101818.06;;;12.60;47.20
52651;BME280;38537;47.226;39.702;2022-10-22T08:03:58;101804.41;;;12.44;46.22
52651;BME280;38537;47.226;39.702;2022-10-22T08:06:26;101808.53;;;12.61;47.38
52651;BME280;38537;47.226;39.702;2022-10-22T08:08:53;101812.72;;;12.64;46.29
52651;BME280;38537;47.226;39.702;2022-10-22T08:11:20;101813.28;;;12.56;46.07
52651;BME280;38537;47.226;39.702;2022-10-22T08:13:48;101826.50;;;12.50;46.25
52651;BME280;38537;47.226;39.702;2022-10-22T08:16:15;101825.34;;;12.61;46.97
52651;BME280;38537;47.226;39.702;2022-10-22T08:18:43;101826.38;;;12.81;47.74
52651;BME280;38537;47.226;39.702;2022-10-22T08:21:11;101825.41;;;13.00;48.01
52651;BME280;38537;47.226;39.702;2022-10-22T08:23:39;101798.63;;;12.79;46.26
52651;BME280;38537;47.226;39.702;2022-10-22T08:26:08;101831.59;;;13.02;47.11
52651;BME280;38537;47.226;39.702;2022-10-22T08:28:36;101826.53;;;13.04;46.86
52651;BME280;38537;47.226;39.702;2022-10-22T08:31:05;101836.63;;;13.05;47.08
52651;BME280;38537;47.226;39.702;2022-10-22T08:33:33;101825.38;;;13.11;46.38
52651;BME280;38537;47.226;39.702;2022-10-22T08:36:01;101822.00;;;13.14;46.60
52651;BME280;38537;47.226;39.702;2022-10-22T08:38:28;101820.03;;;13.14;46.75
52651;BME280;38537;47.226;39.702;2022-10-22T08:41:18;101826.13;;;13.26;47.04
52651;BME280;38537;47.226;39.702;2022-10-22T08:49:47;101811.25;;;13.31;46.36
52651;BME280;38537;47.226;39.702;2022-10-22T08:52:16;101812.31;;;13.40;46.34
52651;BME280;38537;47.226;39.702;2022-10-22T08:54:57;101817.25;;;13.53;45.71
52651;BME280;38537;47.226;39.702;2022-10-22T09:00:30;101818.09;;;13.54;46.38
52651;BME280;38537;47.226;39.702;2022-10-22T09:03:22;101820.56;;;13.60;46.49
52651;BME280;38537;47.226;39.702;2022-10-22T09:05:57;101824.16;;;13.66;46.46
52651;BME280;38537;47.226;39.702;2022-10-22T09:08:25;101809.25;;;13.70;46.50
52651;BME280;38537;47.226;39.702;2022-10-22T09:11:11;101820.19;;;13.72;45.09
52651;BME280;38537;47.226;39.702;2022-10-22T09:13:41;101798.97;;;13.61;45.87
52651;BME280;38537;47.226;39.702;2022-10-22T09:22:06;101808.44;;;13.65;45.64
52651;BME280;38537;47.226;39.702;2022-10-22T09:24:45;101799.09;;;13.75;46.50
52651;BME280;38537;47.226;39.702;2022-10-22T09:27:26;101805.63;;;13.99;46.46
52651;BME280;38537;47.226;39.702;2022-10-22T09:29:54;101800.50;;;14.06;45.73
52651;BME280;38537;47.226;39.702;2022-10-22T09:32:21;101809.69;;;14.12;44.98
52651;BME280;38537;47.226;39.702;2022-10-22T09:34:49;101796.69;;;14.21;45.71
52651;BME280;38537;47.226;39.702;2022-10-22T09:37:25;101814.72;;;14.44;46.27
52651;BME280;38537;47.226;39.702;2022-10-22T09:39:53;101803.44;;;14.49;45.52
52651;BME280;38537;47.226;39.702;2022-10-22T09:42:22;101810.88;;;14.58;45.79
52651;BME280;38537;47.226;39.702;2022-10-22T09:44:54;101799.88;;;14.62;44.90
52651;BME280;38537;47.226;39.702;2022-10-22T09:52:58;101808.75;;;14.21;44.81
52651;BME280;38537;47.226;39.702;2022-10-22T09:55:29;101797.47;;;14.26;45.52
52651;BME280;38537;47.226;39.702;2022-10-22T09:57:58;101796.63;;;14.26;45.28
52651;BME280;38537;47.226;39.702;2022-10-22T10:00:26;101803.09;;;13.97;44.56
52651;BME280;38537;47.226;39.702;2022-10-22T10:02:58;101790.25;;;13.62;44.36
52651;BME280;38537;47.226;39.702;2022-10-22T10:05:34;101794.41;;;13.31;44.39
52651;BME280;38537;47.226;39.702;2022-10-22T10:08:14;101789.75;;;13.11;45.09
52651;BME280;38537;47.226;39.702;2022-10-22T10:14:11;101786.13;;;13.05;46.02
52651;BME280;38537;47.226;39.702;2022-10-22T10:16:57;101784.47;;;12.99;45.78
52651;BME280;38537;47.226;39.702;2022-10-22T10:22:15;101775.88;;;12.86;46.20
52651;BME280;38537;47.226;39.702;2022-10-22T10:27:41;101771.75;;;12.73;46.48
52651;BME280;38537;47.226;39.702;2022-10-22T10:30:16;101746.41;;;12.44;46.55
52651;BME280;38537;47.226;39.702;2022-10-22T10:32:51;101765.63;;;12.66;46.25
52651;BME280;38537;47.226;39.702;2022-10-22T10:38:37;101763.84;;;12.31;46.94
52651;BME280;38537;47.226;39.702;2022-10-22T10:41:30;101748.94;;;12.35;46.96
52651;BME280;38537;47.226;39.702;2022-10-22T10:49:57;101735.53;;;12.32;47.16
52651;BME280;38537;47.226;39.702;2022-10-22T10:57:52;101735.50;;;12.92;47.25
52651;BME280;38537;47.226;39.702;2022-10-22T11:00:23;101718.34;;;12.98;46.98
52651;BME280;38537;47.226;39.702;2022-10-22T11:06:02;101707.16;;;13.32;46.21
52651;BME280;38537;47.226;39.702;2022-10-22T11:08:37;101707.66;;;13.40;45.93
52651;BME280;38537;47.226;39.702;2022-10-22T11:11:14;101714.69;;;13.37;45.56
52651;BME280;38537;47.226;39.702;2022-10-22T11:13:53;101700.50;;;13.23;46.03
52651;BME280;38537;47.226;39.702;2022-10-22T11:16:28;101701.97;;;13.11;45.79
52651;BME280;38537;47.226;39.702;2022-10-22T11:19:06;101700.56;;;13.18;46.18
52651;BME280;38537;47.226;39.702;2022-10-22T11:22:18;101704.50;;;13.17;46.14
52651;BME280;38537;47.226;39.702;2022-10-22T11:25:22;101698.78;;;13.27;46.17
52651;BME280;38537;47.226;39.702;2022-10-22T11:27:55;101679.72;;;13.24;46.54
52651;BME280;38537;47.226;39.702;2022-10-22T11:30:35;101685.56;;;13.33;46.18
52651;BME280;38537;47.226;39.702;2022-10-22T11:33:11;101682.16;;;13.36;45.90
52651;BME280;38537;47.226;39.702;2022-10-22T11:35:43;101684.50;;;13.53;46.59
52651;BME280;38537;47.226;39.702;2022-10-22T11:38:14;101689.97;;;13.68;46.03
52651;BME280;38537;47.226;39.702;2022-10-22T11:43:50;101671.38;;;13.48;45.13
52651;BME280;38537;47.226;39.702;2022-10-22T11:49:22;101679.31;;;13.65;45.69
52651;BME280;38537;47.226;39.702;2022-10-22T11:51:47;101671.81;;;13.60;45.86
52651;BME280;38537;47.226;39.702;2022-10-22T11:59:59;101673.44;;;14.14;46.57
52651;BME280;38537;47.226;39.702;2022-10-22T12:02:40;101667.22;;;14.17;45.81
52651;BME280;38537;47.226;39.702;2022-10-22T12:08:21;101662.06;;;14.48;46.15
52651;BME280;38537;47.226;39.702;2022-10-22T12:10:54;101659.38;;;14.57;45.80
52651;BME280;38537;47.226;39.702;2022-10-22T12:13:30;101659.38;;;14.57;44.10
52651;BME280;38537;47.226;39.702;2022-10-22T12:16:01;101649.97;;;14.48;44.89
52651;BME280;38537;47.226;39.702;2022-10-22T12:18:35;101653.88;;;14.28;44.35
52651;BME280;38537;47.226;39.702;2022-10-22T12:21:11;101649.09;;;14.28;45.02
52651;BME280;38537;47.226;39.702;2022-10-22T12:23:40;101658.41;;;14.48;45.50
52651;BME280;38537;47.226;39.702;2022-10-22T12:26:25;101664.41;;;14.60;44.40
52651;BME280;38537;47.226;39.702;2022-10-22T12:28:58;101643.81;;;14.46;44.32
52651;BME280;38537;47.226;39.702;2022-10-22T12:31:27;101656.50;;;14.62;44.82
52651;BME280;38537;47.226;39.702;2022-10-22T12:33:58;101664.03;;;14.66;44.57
52651;BME280;38537;47.226;39.702;2022-10-22T12:36:27;101647.47;;;14.65;44.19
52651;BME280;38537;47.226;39.702;2022-10-22T12:38:59;101648.31;;;14.65;44.40
52651;BME280;38537;47.226;39.702;2022-10-22T12:41:34;101653.38;;;14.82;45.07
52651;BME280;38537;47.226;39.702;2022-10-22T12:44:03;101643.53;;;14.98;45.25
52651;BME280;38537;47.226;39.702;2022-10-22T12:46:34;101643.72;;;14.88;43.68
52651;BME280;38537;47.226;39.702;2022-10-22T12:49:05;101650.56;;;14.82;43.78
52651;BME280;38537;47.226;39.702;2022-10-22T12:51:34;101652.78;;;14.66;43.32
52651;BME280;38537;47.226;39.702;2022-10-22T12:54:23;101652.38;;;14.73;43.95
52651;BME280;38537;47.226;39.702;2022-10-22T12:56:53;101644.28;;;14.71;43.80
52651;BME280;38537;47.226;39.702;2022-10-22T12:59:33;101638.19;;;14.64;44.13
52651;BME280;38537;47.226;39.702;2022-10-22T13:02:08;101650.03;;;14.61;43.77
52651;BME280;38537;47.226;39.702;2022-10-22T13:04:39;101643.34;;;14.57;44.41
52651;BME280;38537;47.226;39.702;2022-10-22T13:12:24;101644.63;;;14.27;44.52
52651;BME280;38537;47.226;39.702;2022-10-22T13:14:52;101663.25;;;14.42;44.27
52651;BME280;38537;47.226;39.702;2022-10-22T13:17:37;101670.88;;;14.60;44.18
52651;BME280;38537;47.226;39.702;2022-10-22T13:20:22;101658.41;;;14.66;44.44
52651;BME280;38537;47.226;39.702;2022-10-22T13:23:00;101661.00;;;14.63;43.67
52651;BME280;38537;47.226;39.702;2022-10-22T13:25:31;101658.84;;;14.55;44.11
52651;BME280;38537;47.226;39.702;2022-10-22T13:28:17;101646.53;;;14.51;43.46
52651;BME280;38537;47.226;39.702;2022-10-22T13:30:56;101657.28;;;14.49;43.89
52651;BME280;38537;47.226;39.702;2022-10-22T13:33:29;101652.59;;;14.39;43.93
52651;BME280;38537;47.226;39.702;2022-10-22T13:36:00;101656.50;;;14.19;43.84
52651;BME280;38537;47.226;39.702;2022-10-22T13:38:27;101653.88;;;14.28;44.27
52651;BME280;38537;47.226;39.702;2022-10-22T13:40:56;101643.63;;;14.37;44.02
52651;BME280;38537;47.226;39.702;2022-10-22T13:43:23;101650.13;;;14.32;43.97
52651;BME280;38537;47.226;39.702;2022-10-22T13:45:54;101644.69;;;14.22;43.72
52651;BME280;38537;47.226;39.702;2022-10-22T13:48:24;101652.59;;;13.96;43.74
52651;BME280;38537;47.226;39.702;2022-10-22T13:50:53;101651.34;;;13.84;44.03
52651;BME280;38537;47.226;39.702;2022-10-22T13:53:25;101631.16;;;13.58;44.16
52651;BME280;38537;47.226;39.702;2022-10-22T13:55:54;101642.22;;;13.44;44.53
52651;BME280;38537;47.226;39.702;2022-10-22T13:58:22;101647.75;;;13.25;44.81
52651;BME280;38537;47.226;39.702;2022-10-22T14:00:53;101646.13;;;13.19;45.06
52651;BME280;38537;47.226;39.702;2022-10-22T14:03:32;101635.25;;;13.08;45.39
52651;BME280;38537;47.226;39.702;2022-10-22T14:06:00;101639.34;;;12.91;45.84
52651;BME280;38537;47.226;39.702;2022-10-22T14:08:28;101632.22;;;12.70;46.09
52651;BME280;38537;47.226;39.702;2022-10-22T14:10:55;101627.00;;;12.53;46.41
52651;BME280;38537;47.226;39.702;2022-10-22T14:13:22;101621.72;;;12.47;46.43
52651;BME280;38537;47.226;39.702;2022-10-22T14:15:50;101625.78;;;12.25;46.98
52651;BME280;38537;47.226;39.702;2022-10-22T14:18:26;101622.72;;;12.17;47.00
52651;BME280;38537;47.226;39.702;2022-10-22T14:20:58;101623.66;;;12.02;47.22
52651;BME280;38537;47.226;39.702;2022-10-22T14:23:29;101628.44;;;11.96;47.63
52651;BME280;38537;47.226;39.702;2022-10-22T14:25:59;101632.91;;;11.97;47.59
52651;BME280;38537;47.226;39.702;2022-10-22T14:28:26;101626.28;;;11.78;47.67
52651;BME280;38537;47.226;39.702;2022-10-22T14:30:57;101630.47;;;11.81;48.08
52651;BME280;38537;47.226;39.702;2022-10-22T14:33:33;101628.22;;;11.73;48.28
52651;BME280;38537;47.226;39.702;2022-10-22T14:36:01;101623.78;;;11.61;48.38
52651;BME280;38537;47.226;39.702;2022-10-22T14:38:29;101634.44;;;11.54;48.79
52651;BME280;38537;47.226;39.702;2022-10-22T14:40:58;101640.03;;;11.49;48.73
52651;BME280;38537;47.226;39.702;2022-10-22T14:43:28;101635.03;;;11.41;48.85